Flight Track Log - Related Links

Times and Time Zones

All times are in EDT time to prevent confusion due to time zone crossing. See the BVN8571 flight status page for this flight to view local times or setup timezone preferences in your user account.

Time Position Orientation Groundspeed Altitude Reporting Facility
EDT Latitude Longitude Course Direction KTS MPH feet Rate Location/Type
Fri 07:58:57 AM 41.3042 -95.9047 320° Northwest 82 94 1,400  Level Minneapolis Center
Fri 08:00:10 AM 41.3292 -95.9322 320° Northwest 99 114 2,700 960 Climbing Minneapolis Center
Fri 08:00:12 AM 41.3272 -95.9242 108° East 97 112 2,600 1,000 Descending Minneapolis Center
Fri 08:01:10 AM 41.3436 -95.9611 301° West 107 123 3,700 1,065 Climbing Minneapolis Center
Fri 08:01:14 AM 41.3478 -95.9489 66° East 98 113 3,700 1,082 Level Minneapolis Center
Fri 08:02:11 AM 41.3206 -95.9942 231° Southwest 129 148 4,800 1,082 Climbing Minneapolis Center
Fri 08:02:15 AM 41.3239 -95.9858 62° Northeast 118 136 4,800 885 Level Minneapolis Center
Fri 08:03:12 AM 41.2975 -96.0275 230° Southwest 125 144 5,700 984 Climbing Minneapolis Center
Fri 08:03:16 AM 41.3011 -96.0211 53° Northeast 122 140 5,800 787 Climbing Minneapolis Center
Fri 08:04:13 AM 41.2794 -96.0683 239° Southwest 124 143 6,500 787 Climbing Minneapolis Center
Fri 08:04:17 AM 41.2819 -96.0592 70° East 125 144 6,600 909 Climbing Minneapolis Center
Fri 08:05:19 AM 41.2747 -96.1103 259° West 118 136 7,500 800 Climbing Minneapolis Center
Fri 08:05:32 AM 41.2706 -96.1247 249° West 114 131 7,600 689 Climbing Minneapolis Center
Fri 08:06:20 AM 41.2675 -96.1500 261° West 113 130 8,200 233 Climbing Minneapolis Center
Fri 08:07:15 AM 41.2561 -96.1958 252° West 138 159 8,000 -98 Descending Minneapolis Center
Fri 08:07:21 AM 41.2606 -96.1967 352° North 122 140 8,100  Climbing Minneapolis Center
Fri 08:08:09 AM 41.2489 -96.2464 253° West 143 165 8,000  Descending Minneapolis Center
Fri 08:08:22 AM 41.2511 -96.2500 309° West 141 162 8,100  Climbing Minneapolis Center
Fri 08:09:16 AM 41.2378 -96.3031 252° West 142 163 8,000  Descending Minneapolis Center
Fri 08:09:24 AM 41.2428 -96.3017 12° North 143 165 8,100  Climbing Minneapolis Center
Fri 08:10:17 AM 41.2283 -96.3539 250° West 145 167 8,000  Descending Minneapolis Center
Fri 08:10:25 AM 41.2331 -96.3533 North 144 166 8,100  Climbing Minneapolis Center
Fri 08:11:11 AM 41.2189 -96.4022 249° West 146 168 8,000  Descending Minneapolis Center
Fri 08:11:26 AM 41.2236 -96.4058 330° Northwest 145 167 8,100  Climbing Minneapolis Center
Fri 08:12:12 AM 41.2075 -96.4558 247° West 146 168 8,000  Descending Minneapolis Center
Fri 08:12:28 AM 41.2147 -96.4583 345° North 145 167 8,100  Climbing Minneapolis Center
Fri 08:13:18 AM 41.1964 -96.5125 246° West 149 171 8,000  Descending Minneapolis Center
Fri 08:13:29 AM 41.2044 -96.5119 North 148 170 8,100  Climbing Minneapolis Center
Fri 08:14:07 AM 41.1886 -96.5578 245° Southwest 148 170 8,000  Descending Minneapolis Center
Fri 08:14:30 AM 41.1953 -96.5647 322° Northwest 147 169 8,100  Climbing Minneapolis Center
Fri 08:15:14 AM 41.1792 -96.6111 245° Southwest 143 165 8,000  Descending Minneapolis Center
Fri 08:15:32 AM 41.1864 -96.6158 334° Northwest 145 167 8,100  Climbing Minneapolis Center
Fri 08:16:14 AM 41.1678 -96.6622 242° Southwest 142 163 8,000  Descending Minneapolis Center
Fri 08:16:33 AM 41.1758 -96.6772 306° West 143 165 8,100 109 Climbing Minneapolis Center
Fri 08:17:09 AM 41.1600 -96.7072 235° Southwest 140 161 8,100  Level Minneapolis Center
Fri 08:17:35 AM 41.1661 -96.7272 292° West 141 162 8,100  Level Minneapolis Center
Fri 08:18:09 AM 41.1483 -96.7611 235° Southwest 141 162 8,100  Level Minneapolis Center
Fri 08:18:36 AM 41.1572 -96.7789 304° West 142 163 8,100  Level Minneapolis Center
Fri 08:19:10 AM 41.1389 -96.8119 234° Southwest 142 163 8,100  Level Minneapolis Center
Fri 08:19:38 AM 41.1481 -96.8292 305° West 142 163 8,100  Level Minneapolis Center
Fri 08:20:11 AM 41.1292 -96.8597 231° Southwest 143 165 8,100  Level Minneapolis Center
Fri 08:20:39 AM 41.1389 -96.8811 301° West 143 165 8,100  Level Minneapolis Center
Fri 08:21:11 AM 41.1197 -96.9161 234° Southwest 144 166 8,100  Level Minneapolis Center
Fri 08:21:41 AM 41.1289 -96.9317 308° West 143 165 8,100  Level Minneapolis Center
Fri 08:22:06 AM 41.1097 -96.9586 227° Southwest 145 167 8,100  Level Minneapolis Center
Fri 08:22:42 AM 41.1208 -96.9842 300° West 145 167 8,100  Level Minneapolis Center
Fri 08:23:44 AM 41.1092 -97.0367 254° West 147 169 8,100  Level Minneapolis Center
Fri 08:24:46 AM 41.0983 -97.0944 256° West 148 170 8,100  Level Minneapolis Center
Fri 08:25:47 AM 41.0892 -97.1531 258° West 146 168 8,100  Level Minneapolis Center
Fri 08:26:49 AM 41.0786 -97.2064 255° West 149 171 8,100  Level Minneapolis Center
Fri 08:27:50 AM 41.0683 -97.2597 256° West 149 171 8,100  Level Minneapolis Center
Fri 08:28:52 AM 41.0586 -97.3125 256° West 149 171 8,100  Level Minneapolis Center
Fri 08:29:53 AM 41.0492 -97.3644 256° West 146 168 8,100  Level Minneapolis Center
Fri 08:30:55 AM 41.0378 -97.4228 256° West 149 171 8,100  Level Minneapolis Center
Fri 08:31:57 AM 41.0281 -97.4747 256° West 147 169 8,100  Level Minneapolis Center
Fri 08:32:58 AM 41.0172 -97.5269 255° West 146 168 8,100  Level Minneapolis Center
Fri 08:34:00 AM 41.0092 -97.5786 258° West 145 167 8,100  Level Minneapolis Center
Fri 08:35:01 AM 40.9981 -97.6322 255° West 148 170 8,100  Level Minneapolis Center
Fri 08:36:03 AM 40.9875 -97.6853 255° West 149 171 8,100  Level Minneapolis Center
Fri 08:37:04 AM 40.9758 -97.7486 256° West 149 171 8,100  Level Minneapolis Center
Fri 08:38:06 AM 40.9664 -97.8008 257° West 146 168 8,100  Level Minneapolis Center
Fri 08:39:08 AM 40.9567 -97.8550 257° West 149 171 8,100  Level Minneapolis Center
Fri 08:40:09 AM 40.9456 -97.9083 255° West 150 173 8,100  Level Minneapolis Center
Fri 08:41:11 AM 40.9356 -97.9614 256° West 149 171 8,100  Level Minneapolis Center
Fri 08:42:12 AM 40.9261 -98.0144 257° West 148 170 8,100  Level Minneapolis Center
Fri 08:43:14 AM 40.9164 -98.0669 256° West 148 170 8,100  Level Minneapolis Center
Fri 08:44:15 AM 40.9047 -98.1183 253° West 146 168 8,100  Level Minneapolis Center
Fri 08:45:17 AM 40.8944 -98.1708 255° West 147 169 8,100  Level Minneapolis Center
Fri 08:46:19 AM 40.8858 -98.2225 258° West 145 167 8,100 -293 Level Minneapolis Center
Fri 08:47:20 AM 40.8733 -98.2897 256° West 153 176 7,500 -537 Descending Minneapolis Center
Fri 08:48:22 AM 40.8653 -98.3486 260° West 161 185 7,000 -585 Descending Minneapolis Center
Fri 08:49:23 AM 40.8561 -98.4100 259° West 165 190 6,300 -634 Descending Minneapolis Center
Fri 08:50:25 AM 40.8467 -98.4747 259° West 172 198 5,700 -488 Descending Minneapolis Center
Fri 08:51:26 AM 40.8378 -98.5369 259° West 173 199 5,300 -439 Descending Minneapolis Center
Fri 08:52:28 AM 40.8289 -98.5969 259° West 170 196 4,800 -341 Descending Minneapolis Center
Fri 08:53:29 AM 40.8169 -98.6564 255° West 168 193 4,600 -98 Descending Minneapolis Center
Fri 08:54:31 AM 40.8028 -98.7114 251° West 163 188 4,600 -49 Level Minneapolis Center
Fri 08:55:32 AM 40.7900 -98.7661 253° West 159 183 4,500 -98 Descending Minneapolis Center
Fri 08:57:00 AM 40.7631 -98.8339 242° Southwest  Level FlightAware Approximate
Fri 09:04:00 AM 40.7167 -99.0000 270° West  Level FlightAware Approximate

Login

Don't have an account? Register now (free) for customized features, flight alerts, and more!